createdAt,value
2019-02-23T00:01:58.987Z,99667.77
2019-02-23T00:04:30.788Z,99652.20
2019-02-23T00:07:02.514Z,99658.63
2019-02-23T00:09:34.330Z,99662.19
2019-02-23T00:12:06.546Z,99663.70
2019-02-23T00:14:38.623Z,99670.25
2019-02-23T00:17:10.557Z,99671.38
2019-02-23T00:19:43.756Z,99673.95
2019-02-23T00:22:15.375Z,99678.06
2019-02-23T00:24:47.029Z,99680.13
2019-02-23T00:27:18.785Z,99672.45
2019-02-23T00:29:50.635Z,99671.25
2019-02-23T00:32:22.441Z,99678.33
2019-02-23T00:34:54.281Z,99663.78
2019-02-23T00:37:26.106Z,99672.64
2019-02-23T00:39:57.860Z,99665.67
2019-02-23T00:42:29.271Z,99669.88
2019-02-23T00:45:00.940Z,99677.88
2019-02-23T00:47:32.820Z,99685.16
2019-02-23T00:50:04.879Z,99688.48
2019-02-23T00:52:36.674Z,99693.39
2019-02-23T00:55:08.890Z,99690.38
2019-02-23T00:57:40.629Z,99702.11
2019-02-23T01:00:14.151Z,99690.55
2019-02-23T01:02:45.678Z,99704.13
2019-02-23T01:05:17.448Z,99698.66
2019-02-23T01:07:49.025Z,99689.84
2019-02-23T01:10:20.726Z,99700.59
2019-02-23T01:12:54.915Z,99677.25
2019-02-23T01:15:26.728Z,99688.94
2019-02-23T01:17:58.408Z,99676.27
2019-02-23T01:20:30.211Z,99674.42
2019-02-23T01:23:01.804Z,99663.23
2019-02-23T01:25:33.298Z,99660.08
2019-02-23T01:28:05.208Z,99665.78
2019-02-23T01:30:37.020Z,99672.66
2019-02-23T01:33:08.627Z,99669.91
2019-02-23T01:35:40.321Z,99650.96
2019-02-23T01:38:11.980Z,99659.25
2019-02-23T01:40:43.641Z,99667.74
2019-02-23T01:43:15.584Z,99657.79
2019-02-23T01:45:48.430Z,99660.66
2019-02-23T01:48:20.145Z,99664.66
2019-02-23T01:50:54.898Z,99664.11
2019-02-23T01:53:26.433Z,99669.03
2019-02-23T01:55:58.032Z,99667.91
2019-02-23T01:58:29.596Z,99660.67
2019-02-23T02:01:01.231Z,99668.03
2019-02-23T02:03:32.931Z,99662.50
2019-02-23T02:06:04.719Z,99670.72
2019-02-23T02:08:36.714Z,99668.61
2019-02-23T02:11:08.939Z,99670.80
2019-02-23T02:13:40.612Z,99675.12
2019-02-23T02:16:12.512Z,99672.46
2019-02-23T02:18:44.091Z,99664.81
2019-02-23T02:21:15.861Z,99663.52
2019-02-23T02:23:47.465Z,99667.94
2019-02-23T02:26:19.136Z,99658.02
2019-02-23T02:28:50.714Z,99662.56
2019-02-23T02:31:22.469Z,99651.20
2019-02-23T02:34:15.338Z,99653.64
2019-02-23T02:36:47.241Z,99659.17
2019-02-23T02:39:19.325Z,99664.66
2019-02-23T02:41:50.840Z,99669.73
2019-02-23T02:44:22.334Z,99673.02
2019-02-23T02:46:57.174Z,99677.97
2019-02-23T02:49:28.872Z,99673.81
2019-02-23T02:52:00.529Z,99689.32
2019-02-23T02:54:32.353Z,99670.46
2019-02-23T02:57:04.430Z,99675.27
2019-02-23T02:59:36.383Z,99678.53
2019-02-23T03:02:08.046Z,99673.84
2019-02-23T03:04:39.750Z,99676.05
2019-02-23T03:07:11.269Z,99686.64
2019-02-23T03:09:43.038Z,99674.16
2019-02-23T03:12:14.687Z,99675.36
2019-02-23T03:14:46.474Z,99668.53
2019-02-23T03:17:18.025Z,99670.16
2019-02-23T03:19:49.611Z,99683.46
2019-02-23T03:22:21.192Z,99679.82
2019-02-23T03:24:52.775Z,99689.62
2019-02-23T03:27:24.321Z,99695.30
2019-02-23T03:29:56.479Z,99708.39
2019-02-23T03:32:28.119Z,99705.69
2019-02-23T03:34:59.779Z,99687.02
2019-02-23T03:37:32.530Z,99691.13
2019-02-23T03:40:04.187Z,99692.43
2019-02-23T03:42:35.860Z,99705.09
2019-02-23T03:45:07.576Z,99694.72
2019-02-23T03:47:39.236Z,99696.62
2019-02-23T03:50:10.665Z,99705.63
2019-02-23T03:52:42.353Z,99708.28
2019-02-23T03:55:13.834Z,99720.95
2019-02-23T03:57:45.398Z,99713.09
2019-02-23T04:00:17.219Z,99715.49
2019-02-23T04:02:49.036Z,99723.08
2019-02-23T04:05:20.582Z,99726.70
2019-02-23T04:07:52.296Z,99727.95
2019-02-23T04:10:24.163Z,99765.45
2019-02-23T04:12:55.730Z,99732.91
2019-02-23T04:15:27.337Z,99739.19
2019-02-23T04:17:59.029Z,99734.82
2019-02-23T04:20:30.684Z,99737.69
2019-02-23T04:23:02.418Z,99752.89
2019-02-23T04:25:34.184Z,99746.05
2019-02-23T04:28:05.785Z,99744.20
2019-02-23T04:30:37.792Z,99770.41
2019-02-23T04:33:09.471Z,99768.17
2019-02-23T04:35:41.199Z,99775.13
2019-02-23T04:38:12.771Z,99779.23
2019-02-23T04:40:44.245Z,99781.58
2019-02-23T04:43:16.026Z,99761.31
2019-02-23T04:45:47.689Z,99778.23
2019-02-23T04:48:19.987Z,99774.24
2019-02-23T04:50:52.051Z,99771.59
2019-02-23T04:53:23.891Z,99769.23
2019-02-23T04:55:55.516Z,99768.94
2019-02-23T04:58:28.193Z,99758.44
2019-02-23T05:01:00.007Z,99788.03
2019-02-23T05:03:31.863Z,99774.13
2019-02-23T05:06:03.631Z,99799.11
2019-02-23T05:08:36.881Z,99803.87
2019-02-23T05:11:08.685Z,99801.41
2019-02-23T05:13:40.406Z,99800.17
2019-02-23T05:16:12.354Z,99802.50
2019-02-23T05:18:44.057Z,99815.07
2019-02-23T05:21:26.046Z,99818.34
2019-02-23T05:23:48.838Z,99837.82
2019-02-23T05:26:20.582Z,99824.37
2019-02-23T05:28:52.443Z,99834.25
2019-02-23T05:31:24.216Z,99838.77
2019-02-23T05:33:55.915Z,99844.69
2019-02-23T05:36:27.414Z,99838.03
2019-02-23T05:38:59.176Z,99864.06
2019-02-23T05:41:30.878Z,99843.53
2019-02-23T05:44:03.031Z,99850.69
2019-02-23T05:46:34.736Z,99820.73
2019-02-23T05:49:06.645Z,99836.95
2019-02-23T05:51:39.118Z,99817.32
2019-02-23T05:54:10.741Z,99840.05
2019-02-23T05:56:42.351Z,99844.73
2019-02-23T05:59:14.094Z,99838.89
2019-02-23T06:01:45.880Z,99838.09
2019-02-23T06:04:17.574Z,99861.67
2019-02-23T06:06:49.399Z,99864.70
2019-02-23T06:09:21.150Z,99874.52
2019-02-23T06:11:52.791Z,99882.90
2019-02-23T06:14:24.773Z,99901.00
2019-02-23T06:16:56.834Z,99889.61
2019-02-23T06:19:28.761Z,99892.88
2019-02-23T06:22:00.635Z,99880.36
2019-02-23T06:24:32.347Z,99869.70
2019-02-23T06:27:04.377Z,99885.00
2019-02-23T06:29:36.046Z,99887.13
2019-02-23T06:32:07.819Z,99882.88
2019-02-23T06:34:39.667Z,99901.27
2019-02-23T06:37:11.670Z,99897.30
2019-02-23T06:39:43.369Z,99887.94
2019-02-23T06:42:15.311Z,99880.16
2019-02-23T06:44:47.120Z,99885.24
2019-02-23T06:47:18.778Z,99880.22
2019-02-23T06:49:50.469Z,99892.70
2019-02-23T06:52:22.362Z,99913.25
2019-02-23T06:54:54.255Z,99925.52
2019-02-23T06:57:26.059Z,99948.02
2019-02-23T06:59:58.186Z,99976.81
2019-02-23T07:02:29.924Z,99994.89
2019-02-23T07:05:01.687Z,99992.65
2019-02-23T07:07:33.352Z,99997.93
2019-02-23T07:10:05.231Z,99980.19
2019-02-23T07:12:37.059Z,99974.62
2019-02-23T07:15:09.358Z,99945.27
2019-02-23T07:17:41.024Z,99941.00
2019-02-23T07:20:13.122Z,99927.37
2019-02-23T07:22:45.085Z,99943.92
2019-02-23T07:25:16.806Z,99967.50
2019-02-23T07:27:48.544Z,99985.91
2019-02-23T07:30:20.550Z,100005.12
2019-02-23T07:32:53.371Z,100010.94
2019-02-23T07:35:25.045Z,99988.95
2019-02-23T07:37:58.129Z,99980.47
2019-02-23T07:40:29.937Z,99962.84
2019-02-23T07:43:01.766Z,99930.48
2019-02-23T07:45:33.438Z,99898.47
2019-02-23T07:48:05.367Z,99888.39
2019-02-23T07:50:37.615Z,99892.43
2019-02-23T07:53:09.607Z,99912.42
2019-02-23T07:55:41.364Z,99901.97
2019-02-23T07:58:13.130Z,99885.00
2019-02-23T08:00:44.950Z,99892.26
2019-02-23T08:03:16.864Z,99911.30
2019-02-23T08:05:48.688Z,99894.56
2019-02-23T08:08:20.348Z,99918.17
2019-02-23T08:10:52.113Z,99902.27
2019-02-23T08:13:24.403Z,99898.44
2019-02-23T08:15:56.352Z,99877.85
2019-02-23T08:18:28.468Z,99858.59
2019-02-23T08:21:00.319Z,99856.30
2019-02-23T08:23:32.300Z,99848.50
2019-02-23T08:26:04.124Z,99848.20
2019-02-23T08:28:35.942Z,99842.30
2019-02-23T08:31:07.496Z,99842.94
2019-02-23T08:33:39.184Z,99831.24
2019-02-23T08:36:11.121Z,99835.36
2019-02-23T08:38:43.270Z,99821.03
2019-02-23T08:41:15.184Z,99824.81
2019-02-23T08:43:47.979Z,99825.73
2019-02-23T08:46:19.810Z,99843.03
2019-02-23T08:48:51.609Z,99816.81
2019-02-23T08:51:23.502Z,99820.50
2019-02-23T08:53:55.763Z,99825.17
2019-02-23T08:56:27.496Z,99832.94
2019-02-23T08:58:59.862Z,99837.74
2019-02-23T09:01:31.793Z,99824.98
2019-02-23T09:04:03.876Z,99854.50
2019-02-23T09:06:35.566Z,99832.92
2019-02-23T09:09:08.597Z,99846.58
2019-02-23T09:11:40.640Z,99834.58
2019-02-23T09:14:13.297Z,99837.30
2019-02-23T09:16:45.089Z,99844.13
2019-02-23T09:19:17.821Z,99825.42
2019-02-23T09:21:49.809Z,99830.72
2019-02-23T09:24:21.891Z,99825.69
2019-02-23T09:26:53.874Z,99823.53
2019-02-23T09:29:25.831Z,99824.69
2019-02-23T09:31:57.561Z,99826.55
2019-02-23T09:34:29.290Z,99819.58
2019-02-23T09:37:01.292Z,99826.48
2019-02-23T09:39:33.166Z,99824.26
2019-02-23T09:42:07.752Z,99830.63
2019-02-23T09:44:39.564Z,99827.61
2019-02-23T09:47:11.301Z,99820.59
2019-02-23T09:49:42.976Z,99821.98
2019-02-23T09:52:15.290Z,99824.45
2019-02-23T09:54:47.223Z,99812.17
2019-02-23T09:57:18.963Z,99810.25
2019-02-23T09:59:50.870Z,99811.86
2019-02-23T10:02:22.671Z,99821.72
2019-02-23T10:04:54.625Z,99822.28
2019-02-23T10:07:26.275Z,99823.31
2019-02-23T10:09:58.591Z,99816.92
2019-02-23T10:12:30.589Z,99794.15
2019-02-23T10:15:02.168Z,99809.80
2019-02-23T10:17:34.701Z,99816.13
2019-02-23T10:20:07.201Z,99821.47
2019-02-23T10:22:39.808Z,99803.86
2019-02-23T10:25:12.020Z,99802.26
2019-02-23T10:27:44.886Z,99815.25
2019-02-23T10:30:16.726Z,99822.77
2019-02-23T10:32:48.568Z,99820.36
2019-02-23T10:35:20.784Z,99809.00
2019-02-23T10:37:52.722Z,99811.52
2019-02-23T10:40:24.523Z,99822.23
2019-02-23T10:42:56.284Z,99829.77
2019-02-23T10:45:28.899Z,99824.91
2019-02-23T10:48:00.715Z,99829.80
2019-02-23T10:50:32.589Z,99816.95
2019-02-23T10:53:05.070Z,99818.04
2019-02-23T10:55:36.960Z,99816.70
2019-02-23T10:58:09.382Z,99807.22
2019-02-23T11:00:41.426Z,99812.20
2019-02-23T11:03:14.079Z,99785.66
2019-02-23T11:05:45.830Z,99782.67
2019-02-23T11:08:17.773Z,99769.89
2019-02-23T11:10:49.571Z,99765.23
2019-02-23T11:13:21.507Z,99777.28
2019-02-23T11:15:53.285Z,99764.17
2019-02-23T11:18:24.994Z,99756.20
2019-02-23T11:20:57.048Z,99759.88
2019-02-23T11:23:28.892Z,99760.95
2019-02-23T11:26:01.261Z,99762.20
2019-02-23T11:28:33.133Z,99764.73
2019-02-23T11:31:04.902Z,99765.02
2019-02-23T11:33:37.980Z,99747.81
2019-02-23T11:36:10.259Z,99752.66
2019-02-23T11:38:42.705Z,99742.48
2019-02-23T11:41:14.569Z,99723.43
2019-02-23T11:43:46.352Z,99720.05
2019-02-23T11:46:18.204Z,99732.14
2019-02-23T11:48:50.133Z,99728.11
2019-02-23T11:51:22.065Z,99713.35
2019-02-23T11:53:55.281Z,99680.91
2019-02-23T11:56:28.103Z,99715.40
2019-02-23T11:59:00.116Z,99697.69
2019-02-23T12:01:32.284Z,99710.41
2019-02-23T12:04:04.266Z,99722.52
2019-02-23T12:06:36.711Z,99717.77
2019-02-23T12:09:08.995Z,99705.91
2019-02-23T12:11:41.748Z,99714.97
2019-02-23T12:14:13.479Z,99727.10
2019-02-23T12:16:45.376Z,99713.06
2019-02-23T12:19:17.810Z,99718.73
2019-02-23T12:21:50.066Z,99720.73
2019-02-23T12:24:22.020Z,99696.84
2019-02-23T12:26:54.446Z,99712.71
2019-02-23T12:29:26.944Z,99719.41
2019-02-23T12:31:58.767Z,99706.48
2019-02-23T12:34:30.786Z,99738.61
2019-02-23T12:37:03.174Z,99732.45
2019-02-23T12:39:35.144Z,99708.09
2019-02-23T12:42:07.046Z,99728.38
2019-02-23T12:44:39.321Z,99725.21
2019-02-23T12:47:11.548Z,99705.75
2019-02-23T12:49:43.228Z,99689.56
2019-02-23T12:52:14.971Z,99690.72
2019-02-23T12:54:46.755Z,99714.43
2019-02-23T12:57:19.786Z,99719.37
2019-02-23T12:59:52.787Z,99709.16
2019-02-23T13:02:24.769Z,99708.55
2019-02-23T13:04:56.657Z,99717.67
2019-02-23T13:07:28.571Z,99714.61
2019-02-23T13:10:00.769Z,99711.48
2019-02-23T13:13:25.437Z,99714.90
2019-02-23T13:16:07.575Z,99691.81
2019-02-23T13:19:45.874Z,99689.56
2019-02-23T13:22:57.934Z,99699.41
2019-02-23T13:26:09.309Z,99672.94
2019-02-23T13:29:49.289Z,99705.52
2019-02-23T13:33:23.046Z,99689.80
2019-02-23T13:36:47.092Z,99720.86
2019-02-23T13:40:04.575Z,99713.64
2019-02-23T13:43:51.149Z,99730.02
2019-02-23T13:47:07.004Z,99699.33
2019-02-23T13:50:18.947Z,99697.98
2019-02-23T13:54:13.881Z,99712.80
2019-02-23T13:57:59.481Z,99700.28
2019-02-23T14:01:31.517Z,99711.56
2019-02-23T14:04:57.273Z,99731.53
2019-02-23T14:08:27.792Z,99733.27
2019-02-23T14:12:01.746Z,99728.06
2019-02-23T14:15:25.374Z,99704.92
2019-02-23T14:18:48.265Z,99713.13
2019-02-23T14:22:19.487Z,99715.12
2019-02-23T14:25:53.162Z,99725.22
2019-02-23T14:29:26.755Z,99728.53
2019-02-23T14:32:39.054Z,99735.00
2019-02-23T14:36:00.168Z,99721.88
2019-02-23T14:39:48.827Z,99729.51
2019-02-23T14:43:06.688Z,99718.17
2019-02-23T14:46:29.070Z,99723.52
2019-02-23T14:49:42.217Z,99722.85
2019-02-23T14:53:36.143Z,99738.97
2019-02-23T14:57:28.180Z,99729.94
2019-02-23T15:00:20.810Z,99728.94
2019-02-23T15:03:47.824Z,99727.84
2019-02-23T15:07:03.711Z,99725.05
2019-02-23T15:10:17.339Z,99721.69
2019-02-23T15:13:19.448Z,99724.69
2019-02-23T15:16:50.504Z,99744.38
2019-02-23T15:20:08.635Z,99726.89
2019-02-23T15:23:30.114Z,99734.44
2019-02-23T15:27:05.794Z,99720.89
2019-02-23T15:30:58.783Z,99736.03
2019-02-23T15:34:02.445Z,99747.05
2019-02-23T15:37:00.726Z,99755.48
2019-02-23T15:40:15.739Z,99753.80
2019-02-23T15:43:52.119Z,99761.00
2019-02-23T15:47:28.002Z,99763.23
2019-02-23T15:50:12.142Z,99753.47
2019-02-23T15:52:33.478Z,99754.42
2019-02-23T15:55:05.410Z,99755.34
2019-02-23T15:57:37.575Z,99770.97
2019-02-23T16:00:09.739Z,99768.03
2019-02-23T16:02:41.739Z,99768.04
2019-02-23T16:05:13.460Z,99778.24
2019-02-23T16:07:45.663Z,99739.41
2019-02-23T16:10:18.003Z,99764.66
2019-02-23T16:12:50.160Z,99770.66
2019-02-23T16:15:22.423Z,99772.91
2019-02-23T16:17:54.226Z,99768.56
2019-02-23T16:20:26.218Z,99786.27
2019-02-23T16:22:58.095Z,99773.53
2019-02-23T16:25:38.396Z,99779.00
2019-02-23T16:28:04.219Z,99781.99
2019-02-23T16:30:37.147Z,99779.60
2019-02-23T16:33:09.398Z,99782.63
2019-02-23T16:35:41.957Z,99789.88
2019-02-23T16:38:14.762Z,99787.64
2019-02-23T16:40:50.229Z,99805.95
2019-02-23T16:43:20.736Z,99811.09
2019-02-23T16:45:53.950Z,99819.69
2019-02-23T16:48:25.864Z,99820.80
2019-02-23T16:50:59.561Z,99826.49
2019-02-23T16:53:31.488Z,99828.06
2019-02-23T16:56:03.640Z,99844.52
2019-02-23T16:58:37.248Z,99850.55
2019-02-23T17:01:10.485Z,99845.51
2019-02-23T17:03:42.518Z,99845.47
2019-02-23T17:06:14.304Z,99846.78
2019-02-23T17:08:46.212Z,99850.73
2019-02-23T17:11:19.301Z,99853.59
2019-02-23T17:13:51.381Z,99867.34
2019-02-23T17:16:24.033Z,99842.07
2019-02-23T17:18:56.799Z,99859.39
2019-02-23T17:21:29.183Z,99864.76
2019-02-23T17:24:01.186Z,99866.13
2019-02-23T17:26:36.616Z,99885.55
2019-02-23T17:29:08.965Z,99873.81
2019-02-23T17:31:41.879Z,99865.74
2019-02-23T17:34:14.407Z,99859.34
2019-02-23T17:36:46.459Z,99857.92
2019-02-23T17:39:21.574Z,99854.91
2019-02-23T17:41:54.284Z,99868.64
2019-02-23T17:44:26.533Z,99870.55
2019-02-23T17:46:59.524Z,99862.23
2019-02-23T17:49:31.437Z,99869.08
2019-02-23T17:52:03.355Z,99871.72
2019-02-23T17:54:35.546Z,99867.86
2019-02-23T17:57:08.257Z,99872.40
2019-02-23T17:59:40.618Z,99851.19
2019-02-23T18:02:14.492Z,99853.54
2019-02-23T18:04:46.757Z,99861.16
2019-02-23T18:07:18.572Z,99865.25
2019-02-23T18:09:51.028Z,99862.45
2019-02-23T18:12:23.330Z,99859.42
2019-02-23T18:14:55.829Z,99854.42
2019-02-23T18:17:29.761Z,99862.38
2019-02-23T18:20:05.269Z,99863.78
2019-02-23T18:22:37.120Z,99846.34
2019-02-23T18:25:11.757Z,99857.11
2019-02-23T18:27:44.643Z,99870.85
2019-02-23T18:30:16.775Z,99864.05
2019-02-23T18:32:49.005Z,99872.67
2019-02-23T18:35:22.852Z,99880.69
2019-02-23T18:37:55.153Z,99866.65
2019-02-23T18:40:27.196Z,99869.42
2019-02-23T18:42:59.479Z,99864.32
2019-02-23T18:45:33.311Z,99866.42
2019-02-23T18:48:07.618Z,99864.48
2019-02-23T18:50:40.079Z,99855.34
2019-02-23T18:53:12.339Z,99847.25
2019-02-23T18:55:44.556Z,99854.70
2019-02-23T18:58:17.194Z,99856.09
2019-02-23T19:00:49.977Z,99850.27
2019-02-23T19:03:22.298Z,99855.92
2019-02-23T19:05:54.661Z,99852.25
2019-02-23T19:08:26.720Z,99850.05
2019-02-23T19:10:58.767Z,99858.02
2019-02-23T19:13:31.302Z,99853.48
2019-02-23T19:16:03.175Z,99867.12
2019-02-23T19:18:35.314Z,99875.15
2019-02-23T19:21:07.553Z,99879.67
2019-02-23T19:23:41.344Z,99879.90
2019-02-23T19:26:13.538Z,99898.48
2019-02-23T19:28:47.468Z,99907.04
2019-02-23T19:31:19.998Z,99898.14
2019-02-23T19:33:52.165Z,99906.28
2019-02-23T19:36:24.572Z,99903.05
2019-02-23T19:38:56.665Z,99910.09
2019-02-23T19:41:28.959Z,99906.42
2019-02-23T19:44:02.008Z,99895.05
2019-02-23T19:46:35.813Z,99909.66
2019-02-23T19:49:08.723Z,99912.56
2019-02-23T19:51:41.926Z,99903.30
2019-02-23T19:54:14.518Z,99908.31
2019-02-23T19:56:48.485Z,99914.34
2019-02-23T19:59:20.885Z,99921.33
2019-02-23T20:01:53.905Z,99920.22
2019-02-23T20:04:27.503Z,99945.63
2019-02-23T20:07:01.118Z,99950.07
2019-02-23T20:09:34.688Z,99954.47
2019-02-23T20:12:07.882Z,99964.98
2019-02-23T20:14:40.939Z,99960.62
2019-02-23T20:17:14.619Z,99958.43
2019-02-23T20:19:47.218Z,99949.35
2019-02-23T20:22:19.121Z,99962.25
2019-02-23T20:24:51.765Z,99973.67
2019-02-23T20:27:23.889Z,99978.48
2019-02-23T20:29:56.600Z,99976.45
2019-02-23T20:32:28.960Z,99988.37
2019-02-23T20:35:01.110Z,99970.59
2019-02-23T20:37:33.127Z,99994.80
2019-02-23T20:40:06.827Z,99992.34
2019-02-23T20:42:39.707Z,99991.17
2019-02-23T20:45:13.633Z,100002.48
2019-02-23T20:47:46.619Z,100000.44
2019-02-23T20:50:21.848Z,99995.28
2019-02-23T20:52:54.673Z,99994.17
2019-02-23T20:55:27.729Z,100009.87
2019-02-23T20:58:00.116Z,100000.70
2019-02-23T21:00:34.780Z,99995.72
2019-02-23T21:03:07.889Z,100007.03
2019-02-23T21:05:40.570Z,100014.34
2019-02-23T21:08:13.696Z,100013.25
2019-02-23T21:10:46.627Z,100006.30
2019-02-23T21:13:19.655Z,99990.09
2019-02-23T21:15:52.244Z,100000.95
2019-02-23T21:18:25.638Z,100004.84
2019-02-23T21:20:58.022Z,100006.06
2019-02-23T21:23:30.265Z,100011.03
2019-02-23T21:26:02.662Z,100023.89
2019-02-23T21:28:34.788Z,100036.66
2019-02-23T21:31:07.062Z,100024.88
2019-02-23T21:33:39.034Z,100029.18
2019-02-23T21:36:11.011Z,100031.22
2019-02-23T21:38:44.189Z,100024.40
2019-02-23T21:41:16.611Z,100028.04
2019-02-23T21:43:48.923Z,100032.95
2019-02-23T21:46:20.711Z,100027.09
2019-02-23T21:48:52.755Z,100019.63
2019-02-23T21:51:24.687Z,100021.08
2019-02-23T21:53:56.951Z,100018.61
2019-02-23T21:56:29.195Z,100021.43
2019-02-23T21:59:01.203Z,100036.01
2019-02-23T22:01:33.351Z,100026.16
2019-02-23T22:04:05.403Z,100023.77
2019-02-23T22:06:37.576Z,100019.98
2019-02-23T22:09:09.896Z,100032.48
2019-02-23T22:11:41.690Z,100022.67
2019-02-23T22:14:13.486Z,100021.14
2019-02-23T22:16:45.913Z,100023.30
2019-02-23T22:19:17.682Z,100014.39
2019-02-23T22:21:50.147Z,100017.92
2019-02-23T22:24:21.926Z,100020.23
2019-02-23T22:26:53.558Z,100017.14
2019-02-23T22:29:25.420Z,100018.69
2019-02-23T22:31:57.296Z,100022.72
2019-02-23T22:34:29.399Z,100012.91
2019-02-23T22:37:01.221Z,100009.81
2019-02-23T22:39:33.180Z,100025.01
2019-02-23T22:42:05.381Z,100016.24
2019-02-23T22:44:37.991Z,100025.83
2019-02-23T22:47:10.997Z,100028.58
2019-02-23T22:49:43.172Z,100016.72
2019-02-23T22:52:15.116Z,100004.27
2019-02-23T22:54:47.010Z,100014.04
2019-02-23T22:57:19.043Z,100012.92
2019-02-23T22:59:51.067Z,100007.98
2019-02-23T23:02:22.894Z,100015.90
2019-02-23T23:04:54.927Z,100027.37
2019-02-23T23:07:27.816Z,100026.39
2019-02-23T23:09:59.987Z,100025.30
2019-02-23T23:12:32.065Z,100034.52
2019-02-23T23:15:04.138Z,100025.30
2019-02-23T23:17:35.775Z,100016.90
2019-02-23T23:20:08.138Z,100017.31
2019-02-23T23:22:40.151Z,100007.08
2019-02-23T23:25:12.168Z,100039.83
2019-02-23T23:27:49.301Z,100028.67
2019-02-23T23:30:17.300Z,100032.41
2019-02-23T23:32:48.952Z,100033.70
2019-02-23T23:35:20.886Z,100039.37
2019-02-23T23:37:52.697Z,100032.14
2019-02-23T23:40:24.588Z,100035.81
2019-02-23T23:42:58.330Z,100033.00
2019-02-23T23:45:30.264Z,100038.50
2019-02-23T23:48:02.374Z,100030.30
2019-02-23T23:50:35.456Z,100041.20
2019-02-23T23:53:06.988Z,100044.34
2019-02-23T23:55:38.968Z,100053.48
2019-02-23T23:58:10.626Z,100048.95
